Buoy 32622

sailwx.info

Track history (hours):
 
Tides and Currents Weather Stations Pressure Air Temp Water Temp Dewpoint Dewpoint Depression Visibility Wind Speed Wind Dir Waves Ship Positions

Aadnyj

Last reported at 2014-Nov-21 19:16 UTC. Time now 2014-Nov-21 20:20 UTC.
Position S 17°58' W 161°59'.

Length 56 m.

Type: Towing. MMSI: 413600286.

Water temperature 27.0 ° C

Date/timePositionNaut miles runAvg speedWind from/ knotsBaromVisibWave heightAir tempDewpointWater temp
2014-Nov-21 19:16S 17°58' W 161°59'0 0.2 27.0
2014-Nov-21 18:23S 17°58' W 161°59'0 0.0 27.0
2014-Nov-21 17:57S 17°58' W 161°59'1 0.6 27.0
2014-Nov-21 16:16S 17°58' W 162°00'0 0.0 27.0
2014-Nov-21 15:47S 17°58' W 162°00'0 2.4 27.0
2014-Nov-21 15:44S 17°58' W 162°00'0 0.9 27.0
2014-Nov-21 15:30S 17°58' W 161°60'0 2.5 27.0
2014-Nov-21 15:23S 17°58' W 162°00'0 0.0 27.0
2014-Nov-21 13:52S 17°58' W 162°00'1 4.5 27.0
2014-Nov-21 13:41S 17°59' W 161°59'1 0.8 27.0
2014-Nov-21 11:59S 17°58' W 162°01'1 0.3 27.0
2014-Nov-21 09:47S 17°59' W 162°01'1 5.2 27.0
2014-Nov-21 09:41S 17°59' W 162°00'0 0.1 27.0
2014-Nov-21 08:58S 17°59' W 162°00'0 0.0 27.1
2014-Nov-21 08:53S 17°59' W 162°00'1 0.8 27.1
2014-Nov-21 08:09S 17°59' W 162°00'0 0.0 27.1
2014-Nov-21 08:08S 17°59' W 162°00'1 0.6 27.1
2014-Nov-21 07:15S 17°59' W 161°59'1 0.2 27.1
2014-Nov-21 04:39S 18°00' W 161°59'1 1.4 27.2
2014-Nov-21 04:15S 18°00' W 162°00'0 0.0 27.3
2014-Nov-21 03:46S 18°00' W 162°00'1 0.7 27.3
2014-Nov-21 02:56S 18°01' W 162°00'0 0.0 27.3
2014-Nov-21 02:39S 18°01' W 162°00'1 2.6 27.3
2014-Nov-21 02:25S 18°00' W 162°00'119.9 27.3
2014-Nov-21 02:21S 18°01' W 162°01'0 0.0 27.3
2014-Nov-21 00:46S 18°01' W 162°01'0 0.0 27.3
2014-Nov-21 00:43S 18°01' W 162°01'0 0.1 27.3
2014-Nov-20 22:02S 18°01' W 162°00'0 0.0 27.1
2014-Nov-20 21:15S 18°01' W 162°00'014.9 27.1
2014-Nov-20 21:14S 18°01' W 162°00'0 0.3 27.1
2014-Nov-20 20:24S 18°01' W 162°00'0 0.0 27.0
2014-Nov-20 19:38S 18°01' W 162°00'0 0.0 27.0
2014-Nov-20 18:43S 18°01' W 162°00'1 2.1 27.0
2014-Nov-20 18:26S 18°02' W 162°00'1 0.3 26.9
2014-Nov-20 16:47S 18°02' W 161°59'0 0.0 26.9
2014-Nov-20 16:05S 18°02' W 161°59'0 0.0 26.9
2014-Nov-20 15:47S 18°02' W 161°59'0 2.6 26.9
2014-Nov-20 15:42S 18°02' W 161°59'0 2.4 26.9
2014-Nov-20 15:34S 18°02' W 161°59'0 0.2 26.9
2014-Nov-20 14:28S 18°02' W 161°59'1 1.3 26.9
2014-Nov-20 14:01S 18°03' W 161°59'1 3.4 27.0
2014-Nov-20 13:51S 18°03' W 161°59'1 9.9 27.0
2014-Nov-20 13:46S 18°02' W 161°59'1 0.4 26.9
2014-Nov-20 12:10S 18°03' W 161°59'1 7.2 27.0
2014-Nov-20 11:59S 18°04' W 161°59'0 0.0 27.0
2014-Nov-20 10:06S 18°04' W 161°59'0 0.0 27.0
2014-Nov-20 09:15S 18°04' W 161°59'0 0.0 27.0
2014-Nov-20 09:12S 18°04' W 161°59'0 0.0 27.0
2014-Nov-20 08:30S 18°04' W 161°59'0 0.0
2014-Nov-20 08:28S 18°04' W 161°59'1 0.6 27.0
2014-Nov-20 07:35S 18°04' W 161°58'1 1.0 27.0
2014-Nov-20 06:43S 18°05' W 161°59'0 0.0 27.0
2014-Nov-20 06:02S 18°05' W 161°59'1 0.4 27.0
2014-Nov-20 04:29S 18°05' W 161°58'0 0.0 27.1
2014-Nov-20 04:22S 18°05' W 161°58'1 0.6 27.1
2014-Nov-20 03:23S 18°05' W 161°58'0 0.0 27.1
2014-Nov-20 03:20S 18°05' W 161°58'0 0.0 27.1
2014-Nov-20 02:52S 18°05' W 161°58'0 0.0 27.2
2014-Nov-20 02:50S 18°05' W 161°58'1 2.5 27.2
2014-Nov-20 02:30S 18°06' W 161°58'1 0.5 27.2
2014-Nov-20 00:56S 18°07' W 161°58'1 4.5 27.2
2014-Nov-20 00:48S 18°06' W 161°58'0 0.0 27.2
2014-Nov-19 23:12S 18°06' W 161°58'0 0.0 27.1
2014-Nov-19 20:48S 18°06' W 161°58'0 0.0 27.0
2014-Nov-19 20:43S 18°06' W 161°58'0 0.0 27.0
2014-Nov-19 19:58S 18°06' W 161°58'1 0.7 27.0
2014-Nov-19 19:04S 18°05' W 161°58'0 0.0 27.0
2014-Nov-19 18:53S 18°05' W 161°58'1 0.3 27.0
2014-Nov-19 17:15S 18°05' W 161°58'1 0.6 27.0
2014-Nov-19 16:22S 18°05' W 161°57'0 0.0
2014-Nov-19 15:58S 18°05' W 161°57'0 0.0 26.9
2014-Nov-19 15:51S 18°05' W 161°57'0 0.0 26.9
2014-Nov-19 15:45S 18°05' W 161°57'0 0.0 27.0
2014-Nov-19 15:38S 18°05' W 161°57'0 0.0 27.0
2014-Nov-19 14:53S 18°05' W 161°57'1 0.9 27.0
2014-Nov-19 14:15S 18°05' W 161°56'0 0.0 27.0
2014-Nov-19 14:01S 18°05' W 161°56'1 0.3 27.0
2014-Nov-19 12:16S 18°05' W 161°56'113.7 27.0
2014-Nov-19 12:11S 18°05' W 161°55'1 0.4 27.0
2014-Nov-19 10:37S 18°05' W 161°54'0 0.1 27.0
2014-Nov-19 08:50S 18°05' W 161°54'0 0.0 27.1
2014-Nov-19 08:47S 18°05' W 161°54'0 0.0 27.1
2014-Nov-19 07:56S 18°05' W 161°54'0 0.0 27.1
2014-Nov-19 07:06S 18°05' W 161°54'2 0.8 27.1
2014-Nov-19 04:56S 18°05' W 161°52'0 0.0 27.2
2014-Nov-19 04:53S 18°05' W 161°52'0 0.0 27.2
2014-Nov-19 03:49S 18°05' W 161°52'0 0.0 27.2
2014-Nov-19 03:46S 18°05' W 161°52'1 1.6 27.2
2014-Nov-19 03:14S 18°04' W 161°52'1 2.8 27.2
2014-Nov-19 03:01S 18°05' W 161°52'2 5.7 27.3
2014-Nov-19 02:43S 18°05' W 161°50'0 0.0 27.3
2014-Nov-19 01:10S 18°05' W 161°50'0 0.0 27.3
2014-Nov-19 01:06S 18°05' W 161°50'1 0.5 27.3
2014-Nov-18 23:24S 18°05' W 161°49'1 0.5 27.3
2014-Nov-18 21:00S 18°04' W 161°49'0 0.1 27.2
2014-Nov-18 20:15S 18°04' W 161°49'1 1.0 27.2
2014-Nov-18 19:25S 18°04' W 161°49'0 0.4 27.2
2014-Nov-18 18:33S 18°03' W 161°49'0 0.0 27.2
2014-Nov-18 17:51S 18°03' W 161°49'111.0 27.2
2014-Nov-18 17:45S 18°02' W 161°48'1 1.0 27.2
2014-Nov-18 17:00S 18°03' W 161°49'0 0.6 27.2
2014-Nov-18 16:10S 18°03' W 161°48'0 2.3 27.2
2014-Nov-18 15:58S 18°02' W 161°48'0 0.5 27.2
2014-Nov-18 15:16S 18°02' W 161°49'1 1.0 27.2
2014-Nov-18 14:26S 18°02' W 161°48'0 0.0 27.2
2014-Nov-18 14:12S 18°02' W 161°48'0 0.3 27.2
2014-Nov-18 12:30S 18°02' W 161°48'1 0.8 27.3
2014-Nov-18 10:49S 18°02' W 161°46'1 1.0 27.3
2014-Nov-18 09:57S 18°01' W 161°47'1 0.7 27.3
2014-Nov-18 09:10S 18°01' W 161°46'0 0.0 27.3
2014-Nov-18 09:07S 18°01' W 161°46'1 0.7 27.3
2014-Nov-18 08:16S 18°01' W 161°46'1 0.7 27.3
2014-Nov-18 07:29S 18°01' W 161°46'2 0.8 27.3
2014-Nov-18 05:21S 17°59' W 161°46'0 0.0 27.4
2014-Nov-18 04:12S 17°59' W 161°46'0 0.0 27.4
2014-Nov-18 04:11S 17°59' W 161°46'1 1.4 27.4
2014-Nov-18 03:46S 17°59' W 161°46'2 3.2 27.4
2014-Nov-18 03:15S 17°58' W 161°44'0 0.0 27.4
2014-Nov-18 02:55S 17°58' W 161°44'0 0.0 27.4
2014-Nov-18 01:16S 17°58' W 161°44'1 0.5 27.4
2014-Nov-17 23:30S 17°59' W 161°44'1 0.3 27.3
2014-Nov-17 21:28S 17°59' W 161°44'0 0.5 27.3
2014-Nov-17 20:37S 17°58' W 161°44'0 0.0 27.3
2014-Nov-17 19:50S 17°58' W 161°44'0 0.0 27.3
2014-Nov-17 19:46S 17°58' W 161°44'0 0.0 27.3
2014-Nov-17 18:59S 17°58' W 161°44'0 0.0 27.3
2014-Nov-17 18:16S 17°58' W 161°44'1 0.4 27.3
2014-Nov-17 16:41S 17°58' W 161°44'1 0.6 27.3
2014-Nov-17 15:45S 17°58' W 161°44'0 0.0 27.3
2014-Nov-17 15:41S 17°58' W 161°44'1 0.5 27.3
2014-Nov-17 14:37S 17°58' W 161°44'0 0.0 27.3
2014-Nov-17 14:22S 17°58' W 161°44'1 0.8 27.3
2014-Nov-17 12:46S 17°58' W 161°43'0 0.0 27.3
2014-Nov-17 12:42S 17°58' W 161°43'2 1.1 27.3
2014-Nov-17 11:02S 17°58' W 161°45'1 0.4 27.3
2014-Nov-17 09:29S 17°57' W 161°45'1 1.0 27.3
2014-Nov-17 08:41S 17°58' W 161°46'0 0.0 27.4
2014-Nov-17 08:38S 17°58' W 161°46'2 2.3 27.4
2014-Nov-17 07:51S 17°57' W 161°44'1 0.9 27.4
2014-Nov-17 06:57S 17°58' W 161°43'1 0.8 27.4
2014-Nov-17 05:56S 17°57' W 161°44'1 0.4 27.4
2014-Nov-17 04:39S 17°57' W 161°43'0 0.0 27.4
2014-Nov-17 04:16S 17°57' W 161°43'1 0.7 27.4
2014-Nov-17 03:26S 17°58' W 161°43'0 0.0 27.5
2014-Nov-17 03:24S 17°58' W 161°43'1 1.2 27.5
2014-Nov-17 02:55S 17°57' W 161°43'1 0.7 27.5
2014-Nov-17 01:41S 17°58' W 161°44'0 0.0 27.5
2014-Nov-17 01:30S 17°58' W 161°44'0 0.0 27.5
2014-Nov-17 01:27S 17°58' W 161°44'1 0.5 27.5
2014-Nov-16 23:47S 17°58' W 161°43'1 0.3 27.5
2014-Nov-16 21:45S 17°58' W 161°43'0 0.4 27.4
2014-Nov-16 21:02S 17°57' W 161°43'0 0.0 27.4
2014-Nov-16 20:59S 17°57' W 161°43'0 2.7 27.4
2014-Nov-16 20:51S 17°58' W 161°44'0 0.0 27.4
2014-Nov-16 20:06S 17°58' W 161°44'0 0.0 27.4
2014-Nov-16 19:15S 17°58' W 161°44'0 0.0 27.4
2014-Nov-16 18:45S 17°58' W 161°44'0 0.0 27.4
2014-Nov-16 18:27S 17°58' W 161°44'1 0.5 27.3
2014-Nov-16 17:14S 17°57' W 161°44'0 0.0 27.3
2014-Nov-16 17:11S 17°57' W 161°44'0 0.0 27.3
2014-Nov-16 16:30S 17°57' W 161°44'1 1.1 27.4
2014-Nov-16 15:58S 17°57' W 161°43'0 0.0 27.4
2014-Nov-16 15:30S 17°57' W 161°43'1 1.2 27.4
2014-Nov-16 14:50S 17°58' W 161°44'0 1.4 27.4
2014-Nov-16 14:39S 17°58' W 161°44'0 0.0 27.4
2014-Nov-16 14:26S 17°58' W 161°44'0 0.2 27.4
2014-Nov-16 12:56S 17°58' W 161°44'0 0.0 27.4
2014-Nov-16 12:53S 17°58' W 161°44'1 0.4 27.4
2014-Nov-16 11:13S 17°57' W 161°44'1 0.6 27.4
2014-Nov-16 09:50S 17°58' W 161°44'1 0.7 27.4
2014-Nov-16 09:01S 17°58' W 161°44'0 0.0 27.4
2014-Nov-16 08:56S 17°58' W 161°44'1 0.8 27.4
2014-Nov-16 08:11S 17°58' W 161°44'1 0.6 27.4
2014-Nov-16 07:15S 17°58' W 161°43'1 0.7 27.4
2014-Nov-16 06:26S 17°58' W 161°44'0 0.0 27.4
2014-Nov-16 05:02S 17°58' W 161°44'1 2.9 27.4
2014-Nov-16 04:50S 17°58' W 161°43'0 0.0 27.4
2014-Nov-16 04:47S 17°58' W 161°43'1 0.5 27.4
2014-Nov-16 03:38S 17°58' W 161°43'0 0.0 27.4
2014-Nov-16 03:35S 17°58' W 161°43'1 2.9 27.4
2014-Nov-16 03:23S 17°58' W 161°43'0 0.0 27.4
2014-Nov-16 03:20S 17°58' W 161°43'1 2.8 27.4
2014-Nov-16 03:07S 17°59' W 161°43'0 0.0 27.4
2014-Nov-16 01:53S 17°59' W 161°43'0 0.0 27.5
2014-Nov-16 01:42S 17°59' W 161°43'0 0.0 27.5
2014-Nov-16 01:38S 17°59' W 161°43'1 0.4 27.5
2014-Nov-16 00:00S 17°59' W 161°43'1 0.2 27.4
2014-Nov-15 21:22S 17°59' W 161°44'1 9.7 27.3
2014-Nov-15 21:14S 18°00' W 161°43'0 0.0 27.3
2014-Nov-15 20:28S 18°00' W 161°43'1 0.7 27.2
2014-Nov-15 19:41S 18°00' W 161°43'1 0.9 27.2
2014-Nov-15 18:47S 17°59' W 161°43'1 0.8 27.1
2014-Nov-15 17:45S 18°00' W 161°42'0 0.0 27.0
2014-Nov-15 17:39S 18°00' W 161°42'1 0.4 27.0
2014-Nov-15 16:01S 18°01' W 161°42'0 0.0 27.0
2014-Nov-15 15:01S 18°01' W 161°42'1 7.7 27.0
2014-Nov-15 14:51S 18°01' W 161°41'0 0.0 27.0
2014-Nov-15 14:47S 18°01' W 161°41'0 0.0 27.0
2014-Nov-15 13:18S 18°01' W 161°41'0 0.0 27.1
2014-Nov-15 13:07S 18°01' W 161°41'0 0.0 27.1
2014-Nov-15 13:03S 18°01' W 161°41'0 0.0 27.1
2014-Nov-15 12:55S 18°01' W 161°41'0 0.0 27.1
2014-Nov-15 11:24S 18°01' W 161°41'2 1.0 27.2
2014-Nov-15 09:15S 18°03' W 161°40'0 0.0 27.3
2014-Nov-15 08:30S 18°03' W 161°40'0 0.0 27.3
2014-Nov-15 07:39S 18°03' W 161°40'1 1.5 27.4
2014-Nov-15 06:46S 18°04' W 161°38'0 0.0 27.4
2014-Nov-15 05:16S 18°04' W 161°38'1 0.4 27.5
2014-Nov-15 03:49S 18°04' W 161°38'149.7 27.6
2014-Nov-15 03:48S 18°04' W 161°38'116.6 27.6
2014-Nov-15 03:45S 18°04' W 161°38'0 0.0 27.6
2014-Nov-15 03:40S 18°04' W 161°38'1 0.3 27.6
2014-Nov-15 02:01S 18°04' W 161°37'0 0.0 27.7
2014-Nov-15 01:53S 18°04' W 161°37'1 4.5 27.7
2014-Nov-15 01:45S 18°04' W 161°37'0 0.0 27.7
2014-Nov-15 00:12S 18°04' W 161°37'0 0.0
2014-Nov-15 00:11S 18°04' W 161°37'0 0.0 27.9
2014-Nov-14 21:36S 18°04' W 161°37'0 0.0 27.5
2014-Nov-14 20:46S 18°04' W 161°37'0 0.0 27.4
2014-Nov-14 20:01S 18°04' W 161°37'1 1.0 27.3
2014-Nov-14 19:12S 18°04' W 161°37'0 0.0 27.3
2014-Nov-14 19:09S 18°04' W 161°37'1 0.6 27.3
2014-Nov-14 18:14S 18°04' W 161°37'1 0.7 27.2
2014-Nov-14 16:58S 18°03' W 161°37'1 1.5 27.2
2014-Nov-14 16:35S 18°03' W 161°36'2 1.4 27.2
2014-Nov-14 15:15S 18°02' W 161°34'0 0.0 27.2
2014-Nov-14 15:11S 18°02' W 161°34'1 0.6 27.2
2014-Nov-14 13:29S 18°02' W 161°35'0 1.7 27.3
2014-Nov-14 13:15S 18°01' W 161°35'010.9 27.3
2014-Nov-14 13:14S 18°01' W 161°35'1 9.8 27.3
2014-Nov-14 13:07S 18°01' W 161°34'0 0.0 27.3
2014-Nov-14 11:36S 18°01' W 161°34'1 0.5 27.3
2014-Nov-14 09:41S 18°01' W 161°33'0 0.4 27.3
2014-Nov-14 08:53S 18°01' W 161°32'0 0.0 27.3
2014-Nov-14 08:45S 18°01' W 161°32'0 0.0 27.3
2014-Nov-14 08:01S 18°01' W 161°32'1 1.0 27.3
2014-Nov-14 07:09S 18°00' W 161°32'0 0.2 27.4
2014-Nov-14 05:46S 17°60' W 161°32'1 0.7 27.5
2014-Nov-14 04:11S 17°59' W 161°32'1 3.1 27.8
2014-Nov-14 04:00S 17°59' W 161°31'0 0.0 27.9
2014-Nov-14 03:56S 17°59' W 161°31'1 0.8 27.9
2014-Nov-14 02:16S 17°58' W 161°31'1 3.3 27.6
2014-Nov-14 02:01S 17°58' W 161°31'111.4 27.7
2014-Nov-14 01:58S 17°58' W 161°31'1 0.8 27.7
2014-Nov-14 00:23S 17°57' W 161°30'013.7
2014-Nov-14 00:22S 17°57' W 161°30'3 0.9 27.7
2014-Nov-13 21:00S 17°55' W 161°28'0 0.0 27.2
2014-Nov-13 20:25S 17°55' W 161°28'0 0.0 27.1
2014-Nov-13 20:21S 17°55' W 161°28'1 0.7 27.0
2014-Nov-13 19:29S 17°55' W 161°28'2 2.1 26.9
2014-Nov-13 18:41S 17°53' W 161°26'0 0.0 26.9
2014-Nov-13 17:09S 17°53' W 161°26'0 0.0 26.9
2014-Nov-13 17:06S 17°53' W 161°26'1 0.6 26.9
2014-Nov-13 15:41S 17°53' W 161°27'0 0.0 26.9
2014-Nov-13 15:25S 17°53' W 161°27'1 3.4 26.9
2014-Nov-13 15:15S 17°53' W 161°26'0 0.0 26.9
2014-Nov-13 13:42S 17°53' W 161°26'0 0.0 26.9
2014-Nov-13 13:29S 17°53' W 161°26'1 8.3 26.9
2014-Nov-13 13:23S 17°52' W 161°26'0 0.0 26.9
2014-Nov-13 13:15S 17°52' W 161°26'0 0.0 26.9
2014-Nov-13 11:47S 17°52' W 161°26'1 0.6 26.9
2014-Nov-13 10:00S 17°52' W 161°25'1 0.7 26.9
2014-Nov-13 09:13S 17°52' W 161°24'0 0.0 27.0
2014-Nov-13 09:09S 17°52' W 161°24'0 0.0 27.0
2014-Nov-13 08:16S 17°52' W 161°24'1 0.8 27.0
2014-Nov-13 07:33S 17°52' W 161°23'1 1.2 27.0
2014-Nov-13 06:35S 17°52' W 161°22'2 6.0 27.0
2014-Nov-13 06:20S 17°51' W 161°23'2 0.9 27.0
2014-Nov-13 04:42S 17°52' W 161°22'0 0.0 27.2
2014-Nov-13 04:38S 17°52' W 161°22'0 0.0 27.2
2014-Nov-13 04:30S 17°52' W 161°22'0 0.0 27.2
2014-Nov-13 04:07S 17°52' W 161°22'1 0.8 27.3
2014-Nov-13 03:01S 17°53' W 161°22'1 3.4 27.6
2014-Nov-13 02:51S 17°53' W 161°22'0 0.0 27.6
2014-Nov-13 02:29S 17°53' W 161°22'1 2.1 27.5
2014-Nov-13 02:13S 17°53' W 161°22'0 0.0 27.5
2014-Nov-13 02:09S 17°53' W 161°22'1 0.4 27.5
2014-Nov-13 00:30S 17°53' W 161°22'1 0.4 27.7
2014-Nov-12 20:45S 17°55' W 161°21'0 2.0 27.2
2014-Nov-12 20:40S 17°54' W 161°21'0 0.6 27.2
2014-Nov-12 19:54S 17°55' W 161°22'0 0.7 27.0
2014-Nov-12 19:49S 17°55' W 161°22'1 0.7 27.0
2014-Nov-12 19:01S 17°55' W 161°21'0 0.0 26.9
2014-Nov-12 18:08S 17°55' W 161°21'0 0.2 26.9
2014-Nov-12 17:39S 17°55' W 161°21'0 1.7 26.9
2014-Nov-12 17:36S 17°55' W 161°21'0 0.2 26.9
2014-Nov-12 16:09S 17°55' W 161°21'0 2.0 26.9
2014-Nov-12 16:00S 17°55' W 161°21'0 0.0 26.9
2014-Nov-12 15:30S 17°55' W 161°21'0 0.0 26.9
2014-Nov-12 15:25S 17°55' W 161°21'0 0.0 26.9
2014-Nov-12 13:54S 17°55' W 161°21'0 0.0 27.0
2014-Nov-12 13:40S 17°55' W 161°21'1 3.1 27.0
2014-Nov-12 13:29S 17°55' W 161°22'0 0.0 27.0
2014-Nov-12 11:58S 17°55' W 161°22'1 2.8 26.9
2014-Nov-12 11:45S 17°54' W 161°22'0 0.0
2014-Nov-12 09:34S 17°54' W 161°22'0 0.0 26.9
2014-Nov-12 09:24S 17°54' W 161°22'0 0.0 26.9
2014-Nov-12 08:44S 17°54' W 161°22'0 0.0 27.0
2014-Nov-12 08:41S 17°54' W 161°22'0 0.0 27.0
2014-Nov-12 07:56S 17°54' W 161°22'0 0.0 27.0
2014-Nov-12 07:54S 17°54' W 161°22'0 0.0 27.0
2014-Nov-12 07:00S 17°54' W 161°22'1 0.7 27.0
2014-Nov-12 05:12S 17°53' W 161°22'1 0.6 27.1
2014-Nov-12 04:16S 17°53' W 161°22'1 0.8 27.0
2014-Nov-12 03:29S 17°52' W 161°22'0 0.0 27.1
2014-Nov-12 03:15S 17°52' W 161°22'0 0.0 27.2
2014-Nov-12 02:41S 17°52' W 161°22'1 2.9 27.2
2014-Nov-12 02:24S 17°52' W 161°22'227.2 27.3
2014-Nov-12 02:20S 17°52' W 161°20'1 0.5 27.3
2014-Nov-12 00:45S 17°52' W 161°21'0 0.0
2014-Nov-12 00:44S 17°52' W 161°21'1 0.2 27.3
2014-Nov-11 21:05S 17°51' W 161°20'1 7.0 26.9
2014-Nov-11 20:54S 17°52' W 161°19'0 0.0 26.9
2014-Nov-11 20:09S 17°52' W 161°19'1 1.2 26.9
2014-Nov-11 19:26S 17°51' W 161°20'0 0.0 26.9
2014-Nov-11 19:23S 17°51' W 161°20'   26.9
Track history (hours):
 
Tides and Currents Weather Stations Pressure Air Temp Water Temp Dewpoint Dewpoint Depression Visibility Wind Speed Wind Dir Waves Ship Positions

Aadnyj

Last reported at 2014-Nov-21 19:16 UTC. Time now 2014-Nov-21 20:20 UTC.
Position S 17°58' W 161°59'.

Length 56 m.

Type: Towing. MMSI: 413600286.

Water temperature 27.0 ° C

Date/timePositionNaut miles runAvg speedWind from/ knotsBaromVisibWave heightAir tempDewpointWater temp
2014-Nov-21 19:16S 17°58' W 161°59'0 0.2 27.0
2014-Nov-21 18:23S 17°58' W 161°59'0 0.0 27.0
2014-Nov-21 17:57S 17°58' W 161°59'1 0.6 27.0
2014-Nov-21 16:16S 17°58' W 162°00'0 0.0 27.0
2014-Nov-21 15:47S 17°58' W 162°00'0 2.4 27.0
2014-Nov-21 15:44S 17°58' W 162°00'0 0.9 27.0
2014-Nov-21 15:30S 17°58' W 161°60'0 2.5 27.0
2014-Nov-21 15:23S 17°58' W 162°00'0 0.0 27.0
2014-Nov-21 13:52S 17°58' W 162°00'1 4.5 27.0
2014-Nov-21 13:41S 17°59' W 161°59'1 0.8 27.0
2014-Nov-21 11:59S 17°58' W 162°01'1 0.3 27.0
2014-Nov-21 09:47S 17°59' W 162°01'1 5.2 27.0
2014-Nov-21 09:41S 17°59' W 162°00'0 0.1 27.0
2014-Nov-21 08:58S 17°59' W 162°00'0 0.0 27.1
2014-Nov-21 08:53S 17°59' W 162°00'1 0.8 27.1
2014-Nov-21 08:09S 17°59' W 162°00'0 0.0 27.1
2014-Nov-21 08:08S 17°59' W 162°00'1 0.6 27.1
2014-Nov-21 07:15S 17°59' W 161°59'1 0.2 27.1
2014-Nov-21 04:39S 18°00' W 161°59'1 1.4 27.2
2014-Nov-21 04:15S 18°00' W 162°00'0 0.0 27.3
2014-Nov-21 03:46S 18°00' W 162°00'1 0.7 27.3
2014-Nov-21 02:56S 18°01' W 162°00'0 0.0 27.3
2014-Nov-21 02:39S 18°01' W 162°00'1 2.6 27.3
2014-Nov-21 02:25S 18°00' W 162°00'119.9 27.3
2014-Nov-21 02:21S 18°01' W 162°01'0 0.0 27.3
2014-Nov-21 00:46S 18°01' W 162°01'0 0.0 27.3
2014-Nov-21 00:43S 18°01' W 162°01'0 0.1 27.3
2014-Nov-20 22:02S 18°01' W 162°00'0 0.0 27.1
2014-Nov-20 21:15S 18°01' W 162°00'014.9 27.1
2014-Nov-20 21:14S 18°01' W 162°00'0 0.3 27.1
2014-Nov-20 20:24S 18°01' W 162°00'0 0.0 27.0
2014-Nov-20 19:38S 18°01' W 162°00'0 0.0 27.0
2014-Nov-20 18:43S 18°01' W 162°00'1 2.1 27.0
2014-Nov-20 18:26S 18°02' W 162°00'1 0.3 26.9
2014-Nov-20 16:47S 18°02' W 161°59'0 0.0 26.9
2014-Nov-20 16:05S 18°02' W 161°59'0 0.0 26.9
2014-Nov-20 15:47S 18°02' W 161°59'0 2.6 26.9
2014-Nov-20 15:42S 18°02' W 161°59'0 2.4 26.9
2014-Nov-20 15:34S 18°02' W 161°59'0 0.2 26.9
2014-Nov-20 14:28S 18°02' W 161°59'1 1.3 26.9
2014-Nov-20 14:01S 18°03' W 161°59'1 3.4 27.0
2014-Nov-20 13:51S 18°03' W 161°59'1 9.9 27.0
2014-Nov-20 13:46S 18°02' W 161°59'1 0.4 26.9
2014-Nov-20 12:10S 18°03' W 161°59'1 7.2 27.0
2014-Nov-20 11:59S 18°04' W 161°59'0 0.0 27.0
2014-Nov-20 10:06S 18°04' W 161°59'0 0.0 27.0
2014-Nov-20 09:15S 18°04' W 161°59'0 0.0 27.0
2014-Nov-20 09:12S 18°04' W 161°59'0 0.0 27.0
2014-Nov-20 08:30S 18°04' W 161°59'0 0.0
2014-Nov-20 08:28S 18°04' W 161°59'1 0.6 27.0
2014-Nov-20 07:35S 18°04' W 161°58'1 1.0 27.0
2014-Nov-20 06:43S 18°05' W 161°59'0 0.0 27.0
2014-Nov-20 06:02S 18°05' W 161°59'1 0.4 27.0
2014-Nov-20 04:29S 18°05' W 161°58'0 0.0 27.1
2014-Nov-20 04:22S 18°05' W 161°58'1 0.6 27.1
2014-Nov-20 03:23S 18°05' W 161°58'0 0.0 27.1
2014-Nov-20 03:20S 18°05' W 161°58'0 0.0 27.1
2014-Nov-20 02:52S 18°05' W 161°58'0 0.0 27.2
2014-Nov-20 02:50S 18°05' W 161°58'1 2.5 27.2
2014-Nov-20 02:30S 18°06' W 161°58'1 0.5 27.2
2014-Nov-20 00:56S 18°07' W 161°58'1 4.5 27.2
2014-Nov-20 00:48S 18°06' W 161°58'0 0.0 27.2
2014-Nov-19 23:12S 18°06' W 161°58'0 0.0 27.1
2014-Nov-19 20:48S 18°06' W 161°58'0 0.0 27.0
2014-Nov-19 20:43S 18°06' W 161°58'0 0.0 27.0
2014-Nov-19 19:58S 18°06' W 161°58'1 0.7 27.0
2014-Nov-19 19:04S 18°05' W 161°58'0 0.0 27.0
2014-Nov-19 18:53S 18°05' W 161°58'1 0.3 27.0
2014-Nov-19 17:15S 18°05' W 161°58'1 0.6 27.0
2014-Nov-19 16:22S 18°05' W 161°57'0 0.0
2014-Nov-19 15:58S 18°05' W 161°57'0 0.0 26.9
2014-Nov-19 15:51S 18°05' W 161°57'0 0.0 26.9
2014-Nov-19 15:45S 18°05' W 161°57'0 0.0 27.0
2014-Nov-19 15:38S 18°05' W 161°57'0 0.0 27.0
2014-Nov-19 14:53S 18°05' W 161°57'1 0.9 27.0
2014-Nov-19 14:15S 18°05' W 161°56'0 0.0 27.0
2014-Nov-19 14:01S 18°05' W 161°56'1 0.3 27.0
2014-Nov-19 12:16S 18°05' W 161°56'113.7 27.0
2014-Nov-19 12:11S 18°05' W 161°55'1 0.4 27.0
2014-Nov-19 10:37S 18°05' W 161°54'0 0.1 27.0
2014-Nov-19 08:50S 18°05' W 161°54'0 0.0 27.1
2014-Nov-19 08:47S 18°05' W 161°54'0 0.0 27.1
2014-Nov-19 07:56S 18°05' W 161°54'0 0.0 27.1
2014-Nov-19 07:06S 18°05' W 161°54'2 0.8 27.1
2014-Nov-19 04:56S 18°05' W 161°52'0 0.0 27.2
2014-Nov-19 04:53S 18°05' W 161°52'0 0.0 27.2
2014-Nov-19 03:49S 18°05' W 161°52'0 0.0 27.2
2014-Nov-19 03:46S 18°05' W 161°52'1 1.6 27.2
2014-Nov-19 03:14S 18°04' W 161°52'1 2.8 27.2
2014-Nov-19 03:01S 18°05' W 161°52'2 5.7 27.3
2014-Nov-19 02:43S 18°05' W 161°50'0 0.0 27.3
2014-Nov-19 01:10S 18°05' W 161°50'0 0.0 27.3
2014-Nov-19 01:06S 18°05' W 161°50'1 0.5 27.3
2014-Nov-18 23:24S 18°05' W 161°49'1 0.5 27.3
2014-Nov-18 21:00S 18°04' W 161°49'0 0.1 27.2
2014-Nov-18 20:15S 18°04' W 161°49'1 1.0 27.2
2014-Nov-18 19:25S 18°04' W 161°49'0 0.4 27.2
2014-Nov-18 18:33S 18°03' W 161°49'0 0.0 27.2
2014-Nov-18 17:51S 18°03' W 161°49'111.0 27.2
2014-Nov-18 17:45S 18°02' W 161°48'1 1.0 27.2
2014-Nov-18 17:00S 18°03' W 161°49'0 0.6 27.2
2014-Nov-18 16:10S 18°03' W 161°48'0 2.3 27.2
2014-Nov-18 15:58S 18°02' W 161°48'0 0.5 27.2
2014-Nov-18 15:16S 18°02' W 161°49'1 1.0 27.2
2014-Nov-18 14:26S 18°02' W 161°48'0 0.0 27.2
2014-Nov-18 14:12S 18°02' W 161°48'0 0.3 27.2
2014-Nov-18 12:30S 18°02' W 161°48'1 0.8 27.3
2014-Nov-18 10:49S 18°02' W 161°46'1 1.0 27.3
2014-Nov-18 09:57S 18°01' W 161°47'1 0.7 27.3
2014-Nov-18 09:10S 18°01' W 161°46'0 0.0 27.3
2014-Nov-18 09:07S 18°01' W 161°46'1 0.7 27.3
2014-Nov-18 08:16S 18°01' W 161°46'1 0.7 27.3
2014-Nov-18 07:29S 18°01' W 161°46'2 0.8 27.3
2014-Nov-18 05:21S 17°59' W 161°46'0 0.0 27.4
2014-Nov-18 04:12S 17°59' W 161°46'0 0.0 27.4
2014-Nov-18 04:11S 17°59' W 161°46'1 1.4 27.4
2014-Nov-18 03:46S 17°59' W 161°46'2 3.2 27.4
2014-Nov-18 03:15S 17°58' W 161°44'0 0.0 27.4
2014-Nov-18 02:55S 17°58' W 161°44'0 0.0 27.4
2014-Nov-18 01:16S 17°58' W 161°44'1 0.5 27.4
2014-Nov-17 23:30S 17°59' W 161°44'1 0.3 27.3
2014-Nov-17 21:28S 17°59' W 161°44'0 0.5 27.3
2014-Nov-17 20:37S 17°58' W 161°44'0 0.0 27.3
2014-Nov-17 19:50S 17°58' W 161°44'0 0.0 27.3
2014-Nov-17 19:46S 17°58' W 161°44'0 0.0 27.3
2014-Nov-17 18:59S 17°58' W 161°44'0 0.0 27.3
2014-Nov-17 18:16S 17°58' W 161°44'1 0.4 27.3
2014-Nov-17 16:41S 17°58' W 161°44'1 0.6 27.3
2014-Nov-17 15:45S 17°58' W 161°44'0 0.0 27.3
2014-Nov-17 15:41S 17°58' W 161°44'1 0.5 27.3
2014-Nov-17 14:37S 17°58' W 161°44'0 0.0 27.3
2014-Nov-17 14:22S 17°58' W 161°44'1 0.8 27.3
2014-Nov-17 12:46S 17°58' W 161°43'0 0.0 27.3
2014-Nov-17 12:42S 17°58' W 161°43'2 1.1 27.3
2014-Nov-17 11:02S 17°58' W 161°45'1 0.4 27.3
2014-Nov-17 09:29S 17°57' W 161°45'1 1.0 27.3
2014-Nov-17 08:41S 17°58' W 161°46'0 0.0 27.4
2014-Nov-17 08:38S 17°58' W 161°46'2 2.3 27.4
2014-Nov-17 07:51S 17°57' W 161°44'1 0.9 27.4
2014-Nov-17 06:57S 17°58' W 161°43'1 0.8 27.4
2014-Nov-17 05:56S 17°57' W 161°44'1 0.4 27.4
2014-Nov-17 04:39S 17°57' W 161°43'0 0.0 27.4
2014-Nov-17 04:16S 17°57' W 161°43'1 0.7 27.4
2014-Nov-17 03:26S 17°58' W 161°43'0 0.0 27.5
2014-Nov-17 03:24S 17°58' W 161°43'1 1.2 27.5
2014-Nov-17 02:55S 17°57' W 161°43'1 0.7 27.5
2014-Nov-17 01:41S 17°58' W 161°44'0 0.0 27.5
2014-Nov-17 01:30S 17°58' W 161°44'0 0.0 27.5
2014-Nov-17 01:27S 17°58' W 161°44'1 0.5 27.5
2014-Nov-16 23:47S 17°58' W 161°43'1 0.3 27.5
2014-Nov-16 21:45S 17°58' W 161°43'0 0.4 27.4
2014-Nov-16 21:02S 17°57' W 161°43'0 0.0 27.4
2014-Nov-16 20:59S 17°57' W 161°43'0 2.7 27.4
2014-Nov-16 20:51S 17°58' W 161°44'0 0.0 27.4
2014-Nov-16 20:06S 17°58' W 161°44'0 0.0 27.4
2014-Nov-16 19:15S 17°58' W 161°44'0 0.0 27.4
2014-Nov-16 18:45S 17°58' W 161°44'0 0.0 27.4
2014-Nov-16 18:27S 17°58' W 161°44'1 0.5 27.3
2014-Nov-16 17:14S 17°57' W 161°44'0 0.0 27.3
2014-Nov-16 17:11S 17°57' W 161°44'0 0.0 27.3
2014-Nov-16 16:30S 17°57' W 161°44'1 1.1 27.4
2014-Nov-16 15:58S 17°57' W 161°43'0 0.0 27.4
2014-Nov-16 15:30S 17°57' W 161°43'1 1.2 27.4
2014-Nov-16 14:50S 17°58' W 161°44'0 1.4 27.4
2014-Nov-16 14:39S 17°58' W 161°44'0 0.0 27.4
2014-Nov-16 14:26S 17°58' W 161°44'0 0.2 27.4
2014-Nov-16 12:56S 17°58' W 161°44'0 0.0 27.4
2014-Nov-16 12:53S 17°58' W 161°44'1 0.4 27.4
2014-Nov-16 11:13S 17°57' W 161°44'1 0.6 27.4
2014-Nov-16 09:50S 17°58' W 161°44'1 0.7 27.4
2014-Nov-16 09:01S 17°58' W 161°44'0 0.0 27.4
2014-Nov-16 08:56S 17°58' W 161°44'1 0.8 27.4
2014-Nov-16 08:11S 17°58' W 161°44'1 0.6 27.4
2014-Nov-16 07:15S 17°58' W 161°43'1 0.7 27.4
2014-Nov-16 06:26S 17°58' W 161°44'0 0.0 27.4
2014-Nov-16 05:02S 17°58' W 161°44'1 2.9 27.4
2014-Nov-16 04:50S 17°58' W 161°43'0 0.0 27.4
2014-Nov-16 04:47S 17°58' W 161°43'1 0.5 27.4
2014-Nov-16 03:38S 17°58' W 161°43'0 0.0 27.4
2014-Nov-16 03:35S 17°58' W 161°43'1 2.9 27.4
2014-Nov-16 03:23S 17°58' W 161°43'0 0.0 27.4
2014-Nov-16 03:20S 17°58' W 161°43'1 2.8 27.4
2014-Nov-16 03:07S 17°59' W 161°43'0 0.0 27.4
2014-Nov-16 01:53S 17°59' W 161°43'0 0.0 27.5
2014-Nov-16 01:42S 17°59' W 161°43'0 0.0 27.5
2014-Nov-16 01:38S 17°59' W 161°43'1 0.4 27.5
2014-Nov-16 00:00S 17°59' W 161°43'1 0.2 27.4
2014-Nov-15 21:22S 17°59' W 161°44'1 9.7 27.3
2014-Nov-15 21:14S 18°00' W 161°43'0 0.0 27.3
2014-Nov-15 20:28S 18°00' W 161°43'1 0.7 27.2
2014-Nov-15 19:41S 18°00' W 161°43'1 0.9 27.2
2014-Nov-15 18:47S 17°59' W 161°43'1 0.8 27.1
2014-Nov-15 17:45S 18°00' W 161°42'0 0.0 27.0
2014-Nov-15 17:39S 18°00' W 161°42'1 0.4 27.0
2014-Nov-15 16:01S 18°01' W 161°42'0 0.0 27.0
2014-Nov-15 15:01S 18°01' W 161°42'1 7.7 27.0
2014-Nov-15 14:51S 18°01' W 161°41'0 0.0 27.0
2014-Nov-15 14:47S 18°01' W 161°41'0 0.0 27.0
2014-Nov-15 13:18S 18°01' W 161°41'0 0.0 27.1
2014-Nov-15 13:07S 18°01' W 161°41'0 0.0 27.1
2014-Nov-15 13:03S 18°01' W 161°41'0 0.0 27.1
2014-Nov-15 12:55S 18°01' W 161°41'0 0.0 27.1
2014-Nov-15 11:24S 18°01' W 161°41'2 1.0 27.2
2014-Nov-15 09:15S 18°03' W 161°40'0 0.0 27.3
2014-Nov-15 08:30S 18°03' W 161°40'0 0.0 27.3
2014-Nov-15 07:39S 18°03' W 161°40'1 1.5 27.4
2014-Nov-15 06:46S 18°04' W 161°38'0 0.0 27.4
2014-Nov-15 05:16S 18°04' W 161°38'1 0.4 27.5
2014-Nov-15 03:49S 18°04' W 161°38'149.7 27.6
2014-Nov-15 03:48S 18°04' W 161°38'116.6 27.6
2014-Nov-15 03:45S 18°04' W 161°38'0 0.0 27.6
2014-Nov-15 03:40S 18°04' W 161°38'1 0.3 27.6
2014-Nov-15 02:01S 18°04' W 161°37'0 0.0 27.7
2014-Nov-15 01:53S 18°04' W 161°37'1 4.5 27.7
2014-Nov-15 01:45S 18°04' W 161°37'0 0.0 27.7
2014-Nov-15 00:12S 18°04' W 161°37'0 0.0
2014-Nov-15 00:11S 18°04' W 161°37'0 0.0 27.9
2014-Nov-14 21:36S 18°04' W 161°37'0 0.0 27.5
2014-Nov-14 20:46S 18°04' W 161°37'0 0.0 27.4
2014-Nov-14 20:01S 18°04' W 161°37'1 1.0 27.3
2014-Nov-14 19:12S 18°04' W 161°37'0 0.0 27.3
2014-Nov-14 19:09S 18°04' W 161°37'1 0.6 27.3
2014-Nov-14 18:14S 18°04' W 161°37'1 0.7 27.2
2014-Nov-14 16:58S 18°03' W 161°37'1 1.5 27.2
2014-Nov-14 16:35S 18°03' W 161°36'2 1.4 27.2
2014-Nov-14 15:15S 18°02' W 161°34'0 0.0 27.2
2014-Nov-14 15:11S 18°02' W 161°34'1 0.6 27.2
2014-Nov-14 13:29S 18°02' W 161°35'0 1.7 27.3
2014-Nov-14 13:15S 18°01' W 161°35'010.9 27.3
2014-Nov-14 13:14S 18°01' W 161°35'1 9.8 27.3
2014-Nov-14 13:07S 18°01' W 161°34'0 0.0 27.3
2014-Nov-14 11:36S 18°01' W 161°34'1 0.5 27.3
2014-Nov-14 09:41S 18°01' W 161°33'0 0.4 27.3
2014-Nov-14 08:53S 18°01' W 161°32'0 0.0 27.3
2014-Nov-14 08:45S 18°01' W 161°32'0 0.0 27.3
2014-Nov-14 08:01S 18°01' W 161°32'1 1.0 27.3
2014-Nov-14 07:09S 18°00' W 161°32'0 0.2 27.4
2014-Nov-14 05:46S 17°60' W 161°32'1 0.7 27.5
2014-Nov-14 04:11S 17°59' W 161°32'1 3.1 27.8
2014-Nov-14 04:00S 17°59' W 161°31'0 0.0 27.9
2014-Nov-14 03:56S 17°59' W 161°31'1 0.8 27.9
2014-Nov-14 02:16S 17°58' W 161°31'1 3.3 27.6
2014-Nov-14 02:01S 17°58' W 161°31'111.4 27.7
2014-Nov-14 01:58S 17°58' W 161°31'1 0.8 27.7
2014-Nov-14 00:23S 17°57' W 161°30'013.7
2014-Nov-14 00:22S 17°57' W 161°30'3 0.9 27.7
2014-Nov-13 21:00S 17°55' W 161°28'0 0.0 27.2
2014-Nov-13 20:25S 17°55' W 161°28'0 0.0 27.1
2014-Nov-13 20:21S 17°55' W 161°28'1 0.7 27.0
2014-Nov-13 19:29S 17°55' W 161°28'2 2.1 26.9
2014-Nov-13 18:41S 17°53' W 161°26'0 0.0 26.9
2014-Nov-13 17:09S 17°53' W 161°26'0 0.0 26.9
2014-Nov-13 17:06S 17°53' W 161°26'1 0.6 26.9
2014-Nov-13 15:41S 17°53' W 161°27'0 0.0 26.9
2014-Nov-13 15:25S 17°53' W 161°27'1 3.4 26.9
2014-Nov-13 15:15S 17°53' W 161°26'0 0.0 26.9
2014-Nov-13 13:42S 17°53' W 161°26'0 0.0 26.9
2014-Nov-13 13:29S 17°53' W 161°26'1 8.3 26.9
2014-Nov-13 13:23S 17°52' W 161°26'0 0.0 26.9
2014-Nov-13 13:15S 17°52' W 161°26'0 0.0 26.9
2014-Nov-13 11:47S 17°52' W 161°26'1 0.6 26.9
2014-Nov-13 10:00S 17°52' W 161°25'1 0.7 26.9
2014-Nov-13 09:13S 17°52' W 161°24'0 0.0 27.0
2014-Nov-13 09:09S 17°52' W 161°24'0 0.0 27.0
2014-Nov-13 08:16S 17°52' W 161°24'1 0.8 27.0
2014-Nov-13 07:33S 17°52' W 161°23'1 1.2 27.0
2014-Nov-13 06:35S 17°52' W 161°22'2 6.0 27.0
2014-Nov-13 06:20S 17°51' W 161°23'2 0.9 27.0
2014-Nov-13 04:42S 17°52' W 161°22'0 0.0 27.2
2014-Nov-13 04:38S 17°52' W 161°22'0 0.0 27.2
2014-Nov-13 04:30S 17°52' W 161°22'0 0.0 27.2
2014-Nov-13 04:07S 17°52' W 161°22'1 0.8 27.3
2014-Nov-13 03:01S 17°53' W 161°22'1 3.4 27.6
2014-Nov-13 02:51S 17°53' W 161°22'0 0.0 27.6
2014-Nov-13 02:29S 17°53' W 161°22'1 2.1 27.5
2014-Nov-13 02:13S 17°53' W 161°22'0 0.0 27.5
2014-Nov-13 02:09S 17°53' W 161°22'1 0.4 27.5
2014-Nov-13 00:30S 17°53' W 161°22'1 0.4 27.7
2014-Nov-12 20:45S 17°55' W 161°21'0 2.0 27.2
2014-Nov-12 20:40S 17°54' W 161°21'0 0.6 27.2
2014-Nov-12 19:54S 17°55' W 161°22'0 0.7 27.0
2014-Nov-12 19:49S 17°55' W 161°22'1 0.7 27.0
2014-Nov-12 19:01S 17°55' W 161°21'0 0.0 26.9
2014-Nov-12 18:08S 17°55' W 161°21'0 0.2 26.9
2014-Nov-12 17:39S 17°55' W 161°21'0 1.7 26.9
2014-Nov-12 17:36S 17°55' W 161°21'0 0.2 26.9
2014-Nov-12 16:09S 17°55' W 161°21'0 2.0 26.9
2014-Nov-12 16:00S 17°55' W 161°21'0 0.0 26.9
2014-Nov-12 15:30S 17°55' W 161°21'0 0.0 26.9
2014-Nov-12 15:25S 17°55' W 161°21'0 0.0 26.9
2014-Nov-12 13:54S 17°55' W 161°21'0 0.0 27.0
2014-Nov-12 13:40S 17°55' W 161°21'1 3.1 27.0
2014-Nov-12 13:29S 17°55' W 161°22'0 0.0 27.0
2014-Nov-12 11:58S 17°55' W 161°22'1 2.8 26.9
2014-Nov-12 11:45S 17°54' W 161°22'0 0.0
2014-Nov-12 09:34S 17°54' W 161°22'0 0.0 26.9
2014-Nov-12 09:24S 17°54' W 161°22'0 0.0 26.9
2014-Nov-12 08:44S 17°54' W 161°22'0 0.0 27.0
2014-Nov-12 08:41S 17°54' W 161°22'0 0.0 27.0
2014-Nov-12 07:56S 17°54' W 161°22'0 0.0 27.0
2014-Nov-12 07:54S 17°54' W 161°22'0 0.0 27.0
2014-Nov-12 07:00S 17°54' W 161°22'1 0.7 27.0
2014-Nov-12 05:12S 17°53' W 161°22'1 0.6 27.1
2014-Nov-12 04:16S 17°53' W 161°22'1 0.8 27.0
2014-Nov-12 03:29S 17°52' W 161°22'0 0.0 27.1
2014-Nov-12 03:15S 17°52' W 161°22'0 0.0 27.2
2014-Nov-12 02:41S 17°52' W 161°22'1 2.9 27.2
2014-Nov-12 02:24S 17°52' W 161°22'227.2 27.3
2014-Nov-12 02:20S 17°52' W 161°20'1 0.5 27.3
2014-Nov-12 00:45S 17°52' W 161°21'0 0.0
2014-Nov-12 00:44S 17°52' W 161°21'1 0.2 27.3
2014-Nov-11 21:05S 17°51' W 161°20'1 7.0 26.9
2014-Nov-11 20:54S 17°52' W 161°19'0 0.0 26.9
2014-Nov-11 20:09S 17°52' W 161°19'1 1.2 26.9
2014-Nov-11 19:26S 17°51' W 161°20'0 0.0 26.9
2014-Nov-11 19:23S 17°51' W 161°20'   26.9

Dump ship's entire track history